Time;durP1;ratioP1;P1;durP2;ratioP2;P2;SDS_P1;SDS_P2;PMS_P1;PMS_P2;Temp;Humidity;BMP_temperature;BMP_pressure;BME280_temperature;BME280_humidity;BME280_pressure;Samples;Min_cycle;Max_cycle;Signal;HPM_P1;HPM_P2
2023/05/27 00:01:48;;;;;;;9.65;4.10;;;;;;;;;;5080089;28;20238;-52
2023/05/27 00:04:14;;;;;;;8.85;3.78;;;;;;;;;;5081885;28;20227;-52
2023/05/27 00:06:41;;;;;;;8.18;4.85;;;;;;;;;;5083662;27;20223;-52
2023/05/27 00:09:08;;;;;;;6.43;3.95;;;;;;;;;;5083610;28;20238;-57
2023/05/27 00:11:34;;;;;;;8.05;3.50;;;;;;;;;;5079094;28;20230;-52
2023/05/27 00:14:01;;;;;;;11.65;4.35;;;;;;;;;;5079261;28;20352;-51
2023/05/27 00:16:29;;;;;;;9.82;3.50;;;;;;;;;;5082569;28;20612;-53
2023/05/27 00:18:57;;;;;;;4.47;3.30;;;;;;;;;;5084159;27;20597;-52
2023/05/27 00:21:26;;;;;;;6.35;3.20;;;;;;;;;;5079111;28;20242;-52
2023/05/27 00:23:52;;;;;;;10.35;3.85;;;;;;;;;;5079943;28;20239;-51
2023/05/27 00:26:19;;;;;;;6.97;3.42;;;;;;;;;;5076942;28;20247;-52
2023/05/27 00:28:46;;;;;;;6.30;3.88;;;;;;;;;;5077874;28;20230;-51
2023/05/27 00:31:12;;;;;;;13.00;4.47;;;;;;;;;;5074248;28;20231;-52
2023/05/27 00:33:39;;;;;;;4.78;3.50;;;;;;;;;;5083225;28;20242;-51
2023/05/27 00:36:07;;;;;;;8.15;3.08;;;;;;;;;;5083174;27;20226;-53
2023/05/27 00:38:35;;;;;;;7.45;3.60;;;;;;;;;;5083027;28;20307;-52
2023/05/27 00:41:03;;;;;;;7.38;3.60;;;;;;;;;;5077059;28;20223;-51
2023/05/27 00:43:31;;;;;;;5.82;3.10;;;;;;;;;;5080746;28;20269;-52
2023/05/27 00:45:58;;;;;;;8.63;4.05;;;;;;;;;;5077592;28;20281;-53
2023/05/27 00:48:25;;;;;;;9.10;3.47;;;;;;;;;;5082108;28;20798;-51
2023/05/27 00:50:52;;;;;;;6.38;3.40;;;;;;;;;;5083250;28;20234;-50
2023/05/27 00:53:20;;;;;;;7.30;3.33;;;;;;;;;;5079650;28;20342;-52
2023/05/27 00:55:47;;;;;;;5.97;3.47;;;;;;;;;;5082374;27;20231;-52
2023/05/27 00:58:14;;;;;;;5.95;3.13;;;;;;;;;;5083445;28;20280;-52
2023/05/27 01:00:41;;;;;;;7.07;4.10;;;;;;;;;;5082827;28;20810;-51
2023/05/27 01:03:08;;;;;;;8.32;3.67;;;;;;;;;;5076873;28;20751;-51
2023/05/27 01:05:34;;;;;;;7.90;3.30;;;;;;;;;;5075118;28;20231;-53
2023/05/27 01:08:07;;;;;;;8.07;4.47;;;;;;;;;;5075184;28;20230;-51
2023/05/27 01:10:37;;;;;;;12.38;3.65;;;;;;;;;;5078472;28;20242;-50
2023/05/27 01:13:09;;;;;;;7.10;3.20;;;;;;;;;;5075091;28;20233;-50
2023/05/27 01:15:36;;;;;;;7.38;4.20;;;;;;;;;;5081574;28;20245;-54
2023/05/27 01:18:04;;;;;;;7.32;2.95;;;;;;;;;;5078943;28;20235;-53
2023/05/27 01:20:31;;;;;;;7.38;3.65;;;;;;;;;;5076680;28;20352;-51
2023/05/27 01:22:59;;;;;;;7.88;3.15;;;;;;;;;;5072176;28;20455;-54
2023/05/27 01:25:26;;;;;;;4.63;3.22;;;;;;;;;;5082162;28;20230;-58
2023/05/27 01:27:55;;;;;;;8.82;3.50;;;;;;;;;;5088834;28;20226;-53
2023/05/27 01:30:22;;;;;;;6.78;3.25;;;;;;;;;;5083578;28;20234;-51
2023/05/27 01:32:52;;;;;;;9.02;4.13;;;;;;;;;;5084211;28;20265;-51
2023/05/27 01:35:23;;;;;;;8.35;4.40;;;;;;;;;;5087984;28;20242;-56
2023/05/27 01:37:52;;;;;;;7.13;3.95;;;;;;;;;;5083247;28;20242;-51
2023/05/27 01:40:20;;;;;;;9.47;4.47;;;;;;;;;;5082778;28;20254;-51
2023/05/27 01:42:47;;;;;;;9.50;4.47;;;;;;;;;;5082855;28;20241;-52
2023/05/27 01:45:13;;;;;;;7.70;3.17;;;;;;;;;;5081124;28;20709;-52
2023/05/27 01:47:40;;;;;;;10.02;4.78;;;;;;;;;;5080479;28;20222;-51
2023/05/27 01:50:08;;;;;;;8.15;4.07;;;;;;;;;;5082357;28;20230;-52
2023/05/27 01:52:34;;;;;;;8.18;3.63;;;;;;;;;;5081258;28;20334;-52
2023/05/27 01:55:01;;;;;;;6.80;3.75;;;;;;;;;;5083267;28;20611;-53
2023/05/27 01:57:29;;;;;;;7.82;4.28;;;;;;;;;;5077378;28;20227;-53
2023/05/27 01:59:56;;;;;;;9.40;4.57;;;;;;;;;;5083441;28;20226;-52
2023/05/27 02:02:23;;;;;;;9.35;4.15;;;;;;;;;;5071742;28;20235;-51
2023/05/27 02:04:49;;;;;;;7.57;4.43;;;;;;;;;;5073425;28;20242;-51
2023/05/27 02:07:16;;;;;;;6.35;3.75;;;;;;;;;;5071779;28;20231;-54
2023/05/27 02:09:43;;;;;;;9.88;4.00;;;;;;;;;;5068741;28;20245;-52
2023/05/27 02:12:10;;;;;;;7.70;3.85;;;;;;;;;;5079728;28;20234;-52
2023/05/27 02:14:38;;;;;;;7.63;3.92;;;;;;;;;;5082875;28;20234;-51
2023/05/27 02:17:05;;;;;;;9.40;4.70;;;;;;;;;;5073910;28;20218;-51
2023/05/27 02:19:32;;;;;;;10.23;4.30;;;;;;;;;;5071857;28;20234;-51
2023/05/27 02:21:58;;;;;;;8.40;4.82;;;;;;;;;;5078529;28;20239;-52
2023/05/27 02:24:25;;;;;;;7.87;3.97;;;;;;;;;;5084291;28;20276;-54
2023/05/27 02:26:51;;;;;;;6.13;4.22;;;;;;;;;;5076201;28;20847;-51
2023/05/27 02:29:18;;;;;;;5.85;4.15;;;;;;;;;;5078975;28;20249;-53
2023/05/27 02:31:46;;;;;;;7.37;3.93;;;;;;;;;;5076206;28;20284;-52
2023/05/27 02:34:13;;;;;;;9.20;5.27;;;;;;;;;;5081759;28;20230;-52
2023/05/27 02:36:39;;;;;;;9.75;4.50;;;;;;;;;;5080831;28;20287;-52
2023/05/27 02:39:07;;;;;;;9.37;4.70;;;;;;;;;;5079731;28;20241;-52
2023/05/27 02:41:34;;;;;;;8.30;4.77;;;;;;;;;;5076470;28;20227;-52
2023/05/27 02:44:00;;;;;;;8.20;4.20;;;;;;;;;;5081202;28;20726;-51
2023/05/27 02:46:27;;;;;;;8.70;5.23;;;;;;;;;;5072108;28;20258;-51
2023/05/27 02:48:55;;;;;;;8.10;4.43;;;;;;;;;;5081266;28;20971;-52
2023/05/27 02:51:22;;;;;;;8.10;4.03;;;;;;;;;;5080138;28;20234;-52
2023/05/27 02:53:48;;;;;;;7.33;4.13;;;;;;;;;;5073568;28;20814;-51
2023/05/27 02:56:15;;;;;;;6.73;4.13;;;;;;;;;;5081670;28;20321;-54
2023/05/27 02:58:42;;;;;;;7.43;4.27;;;;;;;;;;5078504;28;20232;-52
2023/05/27 03:01:09;;;;;;;13.27;4.90;;;;;;;;;;5070942;28;20309;-50
2023/05/27 03:03:36;;;;;;;9.13;5.23;;;;;;;;;;5068826;28;20240;-52
2023/05/27 03:06:04;;;;;;;13.13;5.27;;;;;;;;;;5067618;28;20235;-52
2023/05/27 03:08:31;;;;;;;8.80;4.47;;;;;;;;;;5076388;28;20234;-52
2023/05/27 03:10:58;;;;;;;6.77;3.73;;;;;;;;;;5074735;28;20305;-53
2023/05/27 03:13:25;;;;;;;6.90;4.07;;;;;;;;;;5072192;28;20727;-50
2023/05/27 03:15:51;;;;;;;8.97;4.10;;;;;;;;;;5082411;28;20276;-51
2023/05/27 03:18:18;;;;;;;8.70;3.73;;;;;;;;;;5081367;28;20246;-51
2023/05/27 03:20:45;;;;;;;7.23;4.20;;;;;;;;;;5081807;28;20708;-50
2023/05/27 03:23:13;;;;;;;10.93;4.83;;;;;;;;;;5078323;28;20318;-52
2023/05/27 03:25:39;;;;;;;9.73;4.03;;;;;;;;;;5080382;28;20295;-52
2023/05/27 03:28:06;;;;;;;10.63;4.73;;;;;;;;;;5077632;28;20230;-51
2023/05/27 03:30:33;;;;;;;10.87;4.77;;;;;;;;;;5075169;28;20649;-51
2023/05/27 03:33:00;;;;;;;8.63;4.90;;;;;;;;;;5075793;28;20238;-56
2023/05/27 03:35:26;;;;;;;11.27;4.27;;;;;;;;;;5081683;28;20612;-52
2023/05/27 03:37:53;;;;;;;7.70;4.30;;;;;;;;;;5082707;28;20309;-53
2023/05/27 03:40:23;;;;;;;10.77;4.73;;;;;;;;;;5080223;28;20703;-51
2023/05/27 03:42:50;;;;;;;7.63;3.70;;;;;;;;;;5075068;28;23028;-51
2023/05/27 03:45:17;;;;;;;12.93;4.13;;;;;;;;;;5077627;28;20233;-52
2023/05/27 03:47:43;;;;;;;8.80;4.17;;;;;;;;;;5082455;28;20664;-52
2023/05/27 03:50:10;;;;;;;13.47;4.80;;;;;;;;;;5081216;28;20226;-52
2023/05/27 03:52:37;;;;;;;10.10;4.93;;;;;;;;;;5086384;28;20246;-55
2023/05/27 03:55:04;;;;;;;9.30;4.47;;;;;;;;;;5090390;28;20230;-53
2023/05/27 03:57:32;;;;;;;7.30;4.30;;;;;;;;;;5089269;28;20288;-54
2023/05/27 03:59:59;;;;;;;8.37;4.03;;;;;;;;;;5081420;28;20235;-52
2023/05/27 04:02:26;;;;;;;11.37;4.93;;;;;;;;;;5078826;28;20231;-51
2023/05/27 04:04:52;;;;;;;12.03;5.23;;;;;;;;;;5078980;28;20254;-53
2023/05/27 04:07:20;;;;;;;8.40;3.77;;;;;;;;;;5079710;28;20239;-52
2023/05/27 04:09:47;;;;;;;9.20;4.67;;;;;;;;;;5073578;28;20230;-53
2023/05/27 04:12:13;;;;;;;9.43;4.17;;;;;;;;;;5076983;28;20233;-53
2023/05/27 04:14:41;;;;;;;11.43;4.53;;;;;;;;;;5083907;27;20237;-51
2023/05/27 04:17:08;;;;;;;9.13;3.70;;;;;;;;;;5080931;28;20230;-52
2023/05/27 04:19:35;;;;;;;9.77;4.47;;;;;;;;;;5085100;27;20665;-52
2023/05/27 04:22:01;;;;;;;8.83;4.30;;;;;;;;;;5076033;28;20659;-52
2023/05/27 04:24:28;;;;;;;6.20;4.57;;;;;;;;;;5084867;28;20231;-52
2023/05/27 04:26:55;;;;;;;11.40;4.37;;;;;;;;;;5084034;28;20644;-52
2023/05/27 04:29:22;;;;;;;8.67;4.20;;;;;;;;;;5083218;28;20284;-53
2023/05/27 04:31:50;;;;;;;8.40;4.37;;;;;;;;;;5076955;28;20234;-51
2023/05/27 04:34:17;;;;;;;7.67;4.83;;;;;;;;;;5081700;28;20222;-52
2023/05/27 04:36:49;;;;;;;13.00;5.37;;;;;;;;;;5082858;28;20226;-52
2023/05/27 04:39:16;;;;;;;8.97;4.80;;;;;;;;;;5083424;28;20246;-51
2023/05/27 04:41:42;;;;;;;16.93;4.80;;;;;;;;;;5081977;28;20254;-53
2023/05/27 04:44:09;;;;;;;11.33;5.23;;;;;;;;;;5083337;28;20242;-51
2023/05/27 04:46:38;;;;;;;8.07;3.73;;;;;;;;;;5078511;27;20318;-55
2023/05/27 04:49:06;;;;;;;7.67;5.03;;;;;;;;;;5081038;28;20250;-52
2023/05/27 04:51:35;;;;;;;9.23;4.47;;;;;;;;;;5082650;28;20699;-52
2023/05/27 04:54:02;;;;;;;8.33;4.40;;;;;;;;;;5078724;28;21775;-55
2023/05/27 04:56:28;;;;;;;4.90;3.80;;;;;;;;;;5085279;28;20241;-52
2023/05/27 04:58:55;;;;;;;7.30;4.27;;;;;;;;;;5079811;28;20222;-52
2023/05/27 05:01:24;;;;;;;7.80;4.43;;;;;;;;;;5071180;28;20369;-51
2023/05/27 05:04:10;;;;;;;9.57;4.28;;;;;;;;;;5071855;28;20293;-59
2023/05/27 05:06:39;;;;;;;12.10;4.10;;;;;;;;;;5079012;28;20693;-51
2023/05/27 05:09:07;;;;;;;11.60;4.73;;;;;;;;;;5070413;28;20241;-52
2023/05/27 05:11:34;;;;;;;13.83;4.43;;;;;;;;;;5082954;28;20325;-50
2023/05/27 05:14:00;;;;;;;6.35;4.20;;;;;;;;;;5081653;28;20234;-52
2023/05/27 05:16:27;;;;;;;7.97;4.15;;;;;;;;;;5079553;28;20222;-53
2023/05/27 05:18:54;;;;;;;9.75;3.65;;;;;;;;;;5081412;28;20342;-50
2023/05/27 05:21:20;;;;;;;7.65;4.07;;;;;;;;;;5074783;28;20767;-51
2023/05/27 05:23:49;;;;;;;9.27;4.35;;;;;;;;;;5078440;27;20624;-53
2023/05/27 05:26:15;;;;;;;8.57;4.50;;;;;;;;;;5088281;28;20234;-52
2023/05/27 05:28:42;;;;;;;7.82;4.32;;;;;;;;;;5081696;28;20806;-50
2023/05/27 05:31:08;;;;;;;8.93;3.85;;;;;;;;;;5080446;28;20938;-51
2023/05/27 05:33:35;;;;;;;10.05;3.80;;;;;;;;;;5081227;28;20266;-52
2023/05/27 05:36:02;;;;;;;9.63;3.38;;;;;;;;;;5081549;28;20318;-51
2023/05/27 05:38:29;;;;;;;8.98;4.32;;;;;;;;;;5077695;28;20230;-52
2023/05/27 05:40:58;;;;;;;9.38;4.15;;;;;;;;;;5081365;28;20266;-51
2023/05/27 05:43:25;;;;;;;7.68;4.32;;;;;;;;;;5084461;28;20723;-50
2023/05/27 05:45:52;;;;;;;9.93;4.07;;;;;;;;;;5081460;28;20238;-50
2023/05/27 05:48:19;;;;;;;9.55;3.97;;;;;;;;;;5084267;28;20238;-55
2023/05/27 05:50:45;;;;;;;8.20;4.30;;;;;;;;;;5082445;28;20238;-53
2023/05/27 05:53:12;;;;;;;7.70;3.60;;;;;;;;;;5081176;28;20243;-52
2023/05/27 05:55:39;;;;;;;11.63;4.88;;;;;;;;;;5083127;28;20230;-58
2023/05/27 05:58:07;;;;;;;6.63;3.22;;;;;;;;;;5085652;28;20225;-52
2023/05/27 06:00:34;;;;;;;7.05;3.40;;;;;;;;;;5089746;28;20243;-60
2023/05/27 06:03:00;;;;;;;5.95;2.80;;;;;;;;;;5081701;28;20249;-53
2023/05/27 06:05:28;;;;;;;4.63;3.10;;;;;;;;;;5089747;28;20230;-53
2023/05/27 06:07:54;;;;;;;4.55;2.83;;;;;;;;;;5089568;28;20234;-52
2023/05/27 06:10:21;;;;;;;5.72;2.97;;;;;;;;;;5089849;28;20231;-51
2023/05/27 06:12:48;;;;;;;8.25;2.97;;;;;;;;;;5086069;28;20230;-52
2023/05/27 06:15:16;;;;;;;5.07;2.95;;;;;;;;;;5083746;28;20284;-51
2023/05/27 06:17:43;;;;;;;3.72;2.40;;;;;;;;;;5081441;28;20231;-51
2023/05/27 06:20:10;;;;;;;2.92;1.70;;;;;;;;;;5077104;28;20230;-54
2023/05/27 06:22:36;;;;;;;4.97;2.13;;;;;;;;;;5079256;28;20240;-52
2023/05/27 06:25:03;;;;;;;3.75;2.15;;;;;;;;;;5076544;28;20282;-56
2023/05/27 06:27:30;;;;;;;2.35;1.77;;;;;;;;;;5080823;28;20239;-52
2023/05/27 06:29:57;;;;;;;5.43;1.75;;;;;;;;;;5080890;28;20700;-51
2023/05/27 06:32:25;;;;;;;2.13;1.63;;;;;;;;;;5079345;28;20235;-55
2023/05/27 06:34:52;;;;;;;3.55;1.52;;;;;;;;;;5074877;28;20256;-52
2023/05/27 06:37:18;;;;;;;2.45;1.80;;;;;;;;;;5081423;28;20325;-53
2023/05/27 06:39:45;;;;;;;4.68;1.95;;;;;;;;;;5080881;28;20237;-51
2023/05/27 06:42:11;;;;;;;2.22;1.48;;;;;;;;;;5079166;28;20283;-51
2023/05/27 06:44:38;;;;;;;2.65;1.42;;;;;;;;;;5079604;28;20234;-52
2023/05/27 06:47:05;;;;;;;3.00;1.75;;;;;;;;;;5076506;28;20219;-52
2023/05/27 06:49:33;;;;;;;4.78;1.85;;;;;;;;;;5078595;28;20357;-52
2023/05/27 06:52:00;;;;;;;4.53;2.75;;;;;;;;;;5074069;28;21135;-51
2023/05/27 06:54:27;;;;;;;7.43;2.40;;;;;;;;;;5080807;28;20271;-52
2023/05/27 06:56:53;;;;;;;3.00;1.38;;;;;;;;;;5077728;28;20245;-53
2023/05/27 06:59:20;;;;;;;8.23;2.70;;;;;;;;;;5079059;28;20260;-51
2023/05/27 07:01:47;;;;;;;4.40;1.65;;;;;;;;;;5077530;28;20700;-51
2023/05/27 07:04:13;;;;;;;3.55;1.50;;;;;;;;;;5079634;28;20249;-51
2023/05/27 07:06:41;;;;;;;4.10;1.65;;;;;;;;;;5078270;28;20230;-53
2023/05/27 07:09:08;;;;;;;5.38;1.60;;;;;;;;;;5075491;28;20232;-51
2023/05/27 07:11:35;;;;;;;2.95;1.13;;;;;;;;;;5079800;28;20763;-52
2023/05/27 07:14:01;;;;;;;2.22;1.58;;;;;;;;;;5080778;28;20246;-51
2023/05/27 07:16:28;;;;;;;2.08;1.40;;;;;;;;;;5078663;28;20230;-51
2023/05/27 07:18:55;;;;;;;1.60;1.25;;;;;;;;;;5073806;28;20230;-51
2023/05/27 07:21:21;;;;;;;1.70;1.38;;;;;;;;;;5072541;28;20222;-51
2023/05/27 07:23:50;;;;;;;3.05;1.63;;;;;;;;;;5077013;28;20237;-51
2023/05/27 07:26:16;;;;;;;3.17;1.83;;;;;;;;;;5084704;28;20711;-52
2023/05/27 07:28:44;;;;;;;3.58;1.65;;;;;;;;;;5088355;28;20238;-53
2023/05/27 07:31:11;;;;;;;2.47;1.52;;;;;;;;;;5082316;28;20230;-52
2023/05/27 07:33:38;;;;;;;4.20;1.35;;;;;;;;;;5083801;28;20231;-53
2023/05/27 07:36:05;;;;;;;3.40;0.77;;;;;;;;;;5083879;28;20317;-52
2023/05/27 07:38:32;;;;;;;3.13;1.13;;;;;;;;;;5081458;28;20231;-52
2023/05/27 07:41:00;;;;;;;2.58;1.10;;;;;;;;;;5083434;28;20634;-52
2023/05/27 07:43:26;;;;;;;1.55;0.90;;;;;;;;;;5085571;28;20243;-52
2023/05/27 07:45:53;;;;;;;2.38;0.90;;;;;;;;;;5082888;28;20238;-52
2023/05/27 07:48:20;;;;;;;2.83;0.88;;;;;;;;;;5084444;28;20223;-52
2023/05/27 07:50:46;;;;;;;2.15;1.25;;;;;;;;;;5078167;28;20218;-52
2023/05/27 07:53:13;;;;;;;1.90;1.10;;;;;;;;;;5084050;28;20938;-51
2023/05/27 07:55:39;;;;;;;1.95;1.20;;;;;;;;;;5080896;28;20317;-51
2023/05/27 07:58:08;;;;;;;1.98;0.90;;;;;;;;;;5080924;28;20258;-53
2023/05/27 08:00:34;;;;;;;1.02;0.90;;;;;;;;;;5084467;28;20257;-52
2023/05/27 08:03:01;;;;;;;2.33;1.05;;;;;;;;;;5082510;28;20261;-52
2023/05/27 08:05:27;;;;;;;0.85;0.70;;;;;;;;;;5084187;28;20313;-53
2023/05/27 08:07:54;;;;;;;1.88;0.80;;;;;;;;;;5078706;28;20238;-53
2023/05/27 08:10:21;;;;;;;0.93;0.70;;;;;;;;;;5084214;27;20222;-50
2023/05/27 08:12:48;;;;;;;1.10;0.90;;;;;;;;;;5088239;28;20910;-52
2023/05/27 08:15:16;;;;;;;2.33;0.90;;;;;;;;;;5081863;28;20333;-52
2023/05/27 08:17:43;;;;;;;2.17;1.20;;;;;;;;;;5087160;28;20239;-52
2023/05/27 08:20:10;;;;;;;2.15;1.55;;;;;;;;;;5080291;28;20245;-51
2023/05/27 08:22:37;;;;;;;5.40;1.35;;;;;;;;;;5081698;28;20974;-52
2023/05/27 08:25:04;;;;;;;3.03;1.00;;;;;;;;;;5083602;28;20231;-52
2023/05/27 08:27:44;;;;;;;5.35;1.13;;;;;;;;;;5100822;28;20292;-53
2023/05/27 08:30:11;;;;;;;0.88;0.60;;;;;;;;;;5087342;28;20234;-51
2023/05/27 08:32:40;;;;;;;1.67;0.90;;;;;;;;;;5087451;28;20310;-52
2023/05/27 08:35:07;;;;;;;0.77;0.70;;;;;;;;;;5080738;28;20283;-52
2023/05/27 08:37:33;;;;;;;0.60;0.60;;;;;;;;;;5086536;28;20238;-54
2023/05/27 08:40:00;;;;;;;1.25;1.10;;;;;;;;;;5079197;28;20314;-51
2023/05/27 08:42:27;;;;;;;2.80;1.00;;;;;;;;;;5082277;28;20237;-51
2023/05/27 08:44:53;;;;;;;1.25;0.95;;;;;;;;;;5080941;28;20234;-52
2023/05/27 08:47:20;;;;;;;2.38;0.75;;;;;;;;;;5078844;28;20329;-52
2023/05/27 08:49:48;;;;;;;1.52;1.25;;;;;;;;;;5087390;28;20303;-52
2023/05/27 08:52:18;;;;;;;1.55;0.90;;;;;;;;;;5082794;28;20233;-53
2023/05/27 08:54:46;;;;;;;1.85;0.85;;;;;;;;;;5086476;28;20309;-52
2023/05/27 08:57:13;;;;;;;2.38;1.00;;;;;;;;;;5081029;28;20238;-52
2023/05/27 08:59:40;;;;;;;0.65;0.65;;;;;;;;;;5086472;28;20288;-53
2023/05/27 09:02:09;;;;;;;1.55;0.85;;;;;;;;;;5084765;28;20295;-52
2023/05/27 09:04:37;;;;;;;1.30;1.20;;;;;;;;;;5082854;28;20223;-51
2023/05/27 09:07:05;;;;;;;6.55;1.00;;;;;;;;;;5085001;28;20235;-50
2023/05/27 09:09:32;;;;;;;1.33;1.02;;;;;;;;;;5086453;28;20700;-50
2023/05/27 09:12:00;;;;;;;1.33;1.23;;;;;;;;;;5085572;28;20242;-52
2023/05/27 09:14:28;;;;;;;0.70;0.70;;;;;;;;;;5084395;28;20238;-52
2023/05/27 09:16:55;;;;;;;3.20;1.20;;;;;;;;;;5082162;28;20941;-51
2023/05/27 09:19:22;;;;;;;2.47;1.05;;;;;;;;;;5085169;28;20218;-51
2023/05/27 09:21:49;;;;;;;3.30;0.98;;;;;;;;;;5082282;28;20253;-52
2023/05/27 09:24:17;;;;;;;6.70;2.47;;;;;;;;;;5080840;28;20234;-52
2023/05/27 09:26:44;;;;;;;4.57;2.00;;;;;;;;;;5083761;28;20230;-51
2023/05/27 09:29:10;;;;;;;1.23;0.90;;;;;;;;;;5085840;28;20244;-51
2023/05/27 09:31:39;;;;;;;0.98;0.80;;;;;;;;;;5083783;28;20808;-52
2023/05/27 09:34:10;;;;;;;1.42;1.00;;;;;;;;;;5085094;28;20325;-51
2023/05/27 09:36:42;;;;;;;1.42;1.23;;;;;;;;;;5086881;28;20292;-51
2023/05/27 09:39:10;;;;;;;2.05;1.40;;;;;;;;;;5078937;28;20254;-52
2023/05/27 09:41:38;;;;;;;1.30;1.15;;;;;;;;;;5073676;28;20839;-52
2023/05/27 09:44:05;;;;;;;1.58;1.23;;;;;;;;;;5081300;28;20237;-51
2023/05/27 09:46:33;;;;;;;4.72;1.20;;;;;;;;;;5078154;27;20295;-52
2023/05/27 09:49:00;;;;;;;1.52;1.25;;;;;;;;;;5080691;28;20313;-54
2023/05/27 09:51:27;;;;;;;1.08;0.77;;;;;;;;;;5080808;28;20741;-51
2023/05/27 09:53:55;;;;;;;3.28;1.35;;;;;;;;;;5084382;28;20235;-52
2023/05/27 09:56:23;;;;;;;2.15;0.98;;;;;;;;;;5076856;28;20227;-53
2023/05/27 09:58:51;;;;;;;1.48;1.15;;;;;;;;;;5078160;28;20218;-52
2023/05/27 10:01:18;;;;;;;1.60;1.05;;;;;;;;;;5080164;28;20299;-51
2023/05/27 10:03:46;;;;;;;1.48;1.10;;;;;;;;;;5082183;28;20242;-55
2023/05/27 10:06:13;;;;;;;1.48;1.20;;;;;;;;;;5083129;28;20329;-51
2023/05/27 10:08:40;;;;;;;1.20;1.10;;;;;;;;;;5082001;28;20230;-53
2023/05/27 10:11:07;;;;;;;1.38;1.23;;;;;;;;;;5079692;28;20230;-53
2023/05/27 10:13:34;;;;;;;3.00;1.10;;;;;;;;;;5081412;28;20604;-54
2023/05/27 10:16:03;;;;;;;1.52;1.40;;;;;;;;;;5085102;28;20700;-52
2023/05/27 10:18:30;;;;;;;3.90;1.42;;;;;;;;;;5082464;28;20299;-53
2023/05/27 10:20:57;;;;;;;2.90;1.38;;;;;;;;;;5082264;28;20298;-52
2023/05/27 10:23:26;;;;;;;2.20;1.27;;;;;;;;;;5082550;28;20270;-52
2023/05/27 10:25:54;;;;;;;3.30;2.40;;;;;;;;;;5080421;28;20322;-52
2023/05/27 10:28:27;;;;;;;1.80;1.58;;;;;;;;;;5080939;28;20305;-50
2023/05/27 10:30:53;;;;;;;4.40;2.13;;;;;;;;;;5080471;28;20289;-51
2023/05/27 10:33:29;;;;;;;1.20;1.10;;;;;;;;;;5081810;28;20222;-53
2023/05/27 10:35:55;;;;;;;1.30;1.20;;;;;;;;;;5080125;28;20680;-55
2023/05/27 10:38:22;;;;;;;1.42;1.25;;;;;;;;;;5082048;28;20309;-52
2023/05/27 10:40:59;;;;;;;1.77;1.45;;;;;;;;;;5077266;28;20753;-53
2023/05/27 10:43:28;;;;;;;1.10;1.00;;;;;;;;;;5076779;28;20303;-52
2023/05/27 10:46:02;;;;;;;1.88;1.40;;;;;;;;;;5082683;28;20237;-52
2023/05/27 10:48:30;;;;;;;3.55;1.45;;;;;;;;;;5081386;28;20247;-52
2023/05/27 10:50:58;;;;;;;1.63;1.48;;;;;;;;;;5077185;28;20794;-52
2023/05/27 10:53:26;;;;;;;1.60;1.50;;;;;;;;;;5082833;28;20276;-54
2023/05/27 10:55:53;;;;;;;2.20;1.60;;;;;;;;;;5077330;28;20241;-53
2023/05/27 10:58:20;;;;;;;2.65;1.50;;;;;;;;;;5081510;28;20249;-51
2023/05/27 11:00:48;;;;;;;2.08;1.52;;;;;;;;;;5077182;28;20287;-52
2023/05/27 11:03:18;;;;;;;1.98;1.52;;;;;;;;;;5079534;28;20250;-51
2023/05/27 11:05:46;;;;;;;3.38;1.77;;;;;;;;;;5084526;28;20241;-54
2023/05/27 11:08:13;;;;;;;2.05;1.70;;;;;;;;;;5083479;28;20241;-52
2023/05/27 11:10:41;;;;;;;2.40;1.65;;;;;;;;;;5089231;28;20329;-51
2023/05/27 11:13:08;;;;;;;2.65;1.48;;;;;;;;;;5087858;28;20298;-53
2023/05/27 11:15:35;;;;;;;2.47;1.80;;;;;;;;;;5087599;28;20298;-53
2023/05/27 11:18:02;;;;;;;3.88;1.88;;;;;;;;;;5085945;28;20235;-51
2023/05/27 11:20:34;;;;;;;2.50;1.67;;;;;;;;;;5080113;28;20226;-52
2023/05/27 11:23:03;;;;;;;1.35;1.25;;;;;;;;;;5084228;28;20230;-51
2023/05/27 11:25:29;;;;;;;1.23;1.10;;;;;;;;;;5081131;28;20241;-50
2023/05/27 11:27:56;;;;;;;1.42;1.33;;;;;;;;;;5081216;28;20226;-52
2023/05/27 11:30:24;;;;;;;1.80;1.60;;;;;;;;;;5080820;28;20238;-52
2023/05/27 11:32:51;;;;;;;1.88;1.50;;;;;;;;;;5079179;28;20309;-53
2023/05/27 11:35:18;;;;;;;1.33;1.23;;;;;;;;;;5079202;28;20227;-53
2023/05/27 11:37:50;;;;;;;2.22;1.30;;;;;;;;;;5083555;28;20984;-51
2023/05/27 11:40:18;;;;;;;2.35;1.52;;;;;;;;;;5080906;28;20252;-52
2023/05/27 11:42:46;;;;;;;2.25;1.50;;;;;;;;;;5078736;28;20238;-51
2023/05/27 11:45:16;;;;;;;2.10;1.63;;;;;;;;;;5080698;28;20280;-53
2023/05/27 11:47:43;;;;;;;3.63;1.95;;;;;;;;;;5076251;28;20705;-52
2023/05/27 11:50:10;;;;;;;1.38;1.27;;;;;;;;;;5082395;28;20602;-53
2023/05/27 11:52:47;;;;;;;1.00;0.93;;;;;;;;;;5079128;28;20234;-51
2023/05/27 11:55:15;;;;;;;2.33;1.58;;;;;;;;;;5080241;28;20225;-51
2023/05/27 11:57:43;;;;;;;2.20;1.45;;;;;;;;;;5084291;28;20238;-52
2023/05/27 12:00:10;;;;;;;1.90;1.50;;;;;;;;;;5079136;28;20234;-52
2023/05/27 12:02:37;;;;;;;1.60;1.50;;;;;;;;;;5079902;28;20235;-52
2023/05/27 12:05:06;;;;;;;1.58;1.48;;;;;;;;;;5081025;28;20226;-53
2023/05/27 12:07:33;;;;;;;1.80;1.52;;;;;;;;;;5082638;28;20727;-53
2023/05/27 12:09:59;;;;;;;1.95;1.38;;;;;;;;;;5080513;28;20661;-51
2023/05/27 12:12:26;;;;;;;2.22;1.83;;;;;;;;;;5084011;28;20239;-52
2023/05/27 12:14:55;;;;;;;1.95;1.50;;;;;;;;;;5088943;28;20792;-51
2023/05/27 12:17:21;;;;;;;1.33;1.23;;;;;;;;;;5082486;27;20300;-51
2023/05/27 12:19:48;;;;;;;4.70;1.30;;;;;;;;;;5084069;28;20230;-53
2023/05/27 12:22:15;;;;;;;3.03;1.42;;;;;;;;;;5084159;28;20227;-51
2023/05/27 12:24:41;;;;;;;3.28;1.45;;;;;;;;;;5086705;28;20230;-51
2023/05/27 12:27:08;;;;;;;2.72;1.60;;;;;;;;;;5084119;28;20227;-52
2023/05/27 12:29:35;;;;;;;2.25;1.65;;;;;;;;;;5086754;28;20231;-52
2023/05/27 12:32:03;;;;;;;2.13;1.77;;;;;;;;;;5085864;28;20329;-54
2023/05/27 12:34:30;;;;;;;4.93;1.60;;;;;;;;;;5085595;28;20400;-51
2023/05/27 12:36:57;;;;;;;2.10;1.33;;;;;;;;;;5082672;28;20613;-53
2023/05/27 12:39:23;;;;;;;2.10;1.30;;;;;;;;;;5084832;28;20256;-53
2023/05/27 12:41:50;;;;;;;1.50;1.40;;;;;;;;;;5083017;27;20269;-52
2023/05/27 12:44:18;;;;;;;1.88;1.30;;;;;;;;;;5078880;28;20227;-53
2023/05/27 12:46:45;;;;;;;2.10;1.75;;;;;;;;;;5086621;28;20238;-52
2023/05/27 12:49:13;;;;;;;1.75;1.45;;;;;;;;;;5088402;27;20728;-52
2023/05/27 12:51:39;;;;;;;1.63;1.35;;;;;;;;;;5081130;28;20242;-52
2023/05/27 12:54:06;;;;;;;2.85;1.77;;;;;;;;;;5080196;28;20243;-54
2023/05/27 12:56:33;;;;;;;2.80;2.15;;;;;;;;;;5085406;28;20843;-50
2023/05/27 12:58:59;;;;;;;1.52;1.42;;;;;;;;;;5084303;28;20238;-51
2023/05/27 13:01:26;;;;;;;3.63;1.48;;;;;;;;;;5082668;28;20778;-53
2023/05/27 13:03:52;;;;;;;1.98;1.63;;;;;;;;;;5084958;28;20234;-52
2023/05/27 13:06:21;;;;;;;2.03;1.35;;;;;;;;;;5082120;28;20257;-52
2023/05/27 13:08:48;;;;;;;1.75;1.65;;;;;;;;;;5086197;28;20226;-52
2023/05/27 13:11:15;;;;;;;2.08;1.52;;;;;;;;;;5084770;28;20253;-52
2023/05/27 13:13:41;;;;;;;1.70;1.42;;;;;;;;;;5079097;28;20258;-53
2023/05/27 13:16:08;;;;;;;2.22;1.90;;;;;;;;;;5085631;27;20728;-53
2023/05/27 13:18:35;;;;;;;2.15;1.67;;;;;;;;;;5083364;28;20222;-53
2023/05/27 13:21:02;;;;;;;2.15;1.95;;;;;;;;;;5085047;28;20227;-51
2023/05/27 13:23:30;;;;;;;2.47;1.60;;;;;;;;;;5084157;28;20736;-53
2023/05/27 13:25:57;;;;;;;1.70;1.30;;;;;;;;;;5080083;27;20230;-52
2023/05/27 13:28:24;;;;;;;2.03;1.63;;;;;;;;;;5082822;28;20227;-52
2023/05/27 13:30:50;;;;;;;3.75;1.67;;;;;;;;;;5079995;28;20226;-51
2023/05/27 13:33:17;;;;;;;1.50;1.40;;;;;;;;;;5086356;28;20233;-52
2023/05/27 13:35:44;;;;;;;5.00;1.63;;;;;;;;;;5089139;28;20238;-53
2023/05/27 13:38:14;;;;;;;2.40;1.50;;;;;;;;;;5088265;28;20242;-58
2023/05/27 13:40:42;;;;;;;1.30;1.20;;;;;;;;;;5089639;28;20265;-51
2023/05/27 13:43:09;;;;;;;1.80;1.20;;;;;;;;;;5080590;28;20317;-52
2023/05/27 13:45:35;;;;;;;1.10;1.10;;;;;;;;;;5080614;28;20602;-52
2023/05/27 13:48:02;;;;;;;2.05;1.38;;;;;;;;;;5084648;28;20240;-51
2023/05/27 13:50:31;;;;;;;3.97;1.50;;;;;;;;;;5080115;28;20697;-52
2023/05/27 13:52:57;;;;;;;2.38;1.23;;;;;;;;;;5083117;27;20230;-51
2023/05/27 13:55:24;;;;;;;3.17;2.03;;;;;;;;;;5082657;28;20238;-50
2023/05/27 13:57:52;;;;;;;1.67;1.38;;;;;;;;;;5084021;28;20230;-53
2023/05/27 14:00:19;;;;;;;1.58;1.35;;;;;;;;;;5080615;28;20634;-53
2023/05/27 14:02:45;;;;;;;3.08;1.98;;;;;;;;;;5079378;28;20242;-52
2023/05/27 14:05:12;;;;;;;1.48;1.30;;;;;;;;;;5075505;28;20231;-51
2023/05/27 14:07:41;;;;;;;2.25;1.20;;;;;;;;;;5082582;28;20235;-52
2023/05/27 14:10:08;;;;;;;1.63;1.52;;;;;;;;;;5078841;28;20239;-52
2023/05/27 14:12:34;;;;;;;1.77;1.20;;;;;;;;;;5080773;28;20625;-51
2023/05/27 14:15:02;;;;;;;1.90;1.38;;;;;;;;;;5084260;28;20241;-53
2023/05/27 14:17:29;;;;;;;1.50;1.35;;;;;;;;;;5083204;28;20311;-51
2023/05/27 14:19:57;;;;;;;2.10;1.52;;;;;;;;;;5077664;27;20238;-52
2023/05/27 14:22:24;;;;;;;2.30;1.40;;;;;;;;;;5076297;28;20227;-53
2023/05/27 14:24:51;;;;;;;1.67;1.38;;;;;;;;;;5083343;28;20314;-51
2023/05/27 14:27:17;;;;;;;1.63;1.50;;;;;;;;;;5082561;28;20309;-51
2023/05/27 14:29:44;;;;;;;3.08;1.65;;;;;;;;;;5083420;28;20234;-52
2023/05/27 14:32:12;;;;;;;1.00;0.90;;;;;;;;;;5079151;28;20231;-52
2023/05/27 14:34:39;;;;;;;4.10;1.80;;;;;;;;;;5081861;28;20230;-53
2023/05/27 14:37:06;;;;;;;3.05;1.55;;;;;;;;;;5082738;28;20598;-53
2023/05/27 14:39:32;;;;;;;1.50;1.40;;;;;;;;;;5081264;28;20239;-51
2023/05/27 14:41:59;;;;;;;2.20;1.48;;;;;;;;;;5079294;28;20234;-61
2023/05/27 14:44:26;;;;;;;3.45;1.58;;;;;;;;;;5074405;28;20227;-51